Time;durP1;ratioP1;P1;durP2;ratioP2;P2;SDS_P1;SDS_P2;PMS_P1;PMS_P2;Temp;Humidity;BMP_temperature;BMP_pressure;BME280_temperature;BME280_humidity;BME280_pressure;Samples;Min_cycle;Max_cycle;Signal;HPM_P1;HPM_P2
2022/03/16 00:01:38;;;;;;;0.57;0.30;;;;;;;;;;4983727;27;20053;-56
2022/03/16 00:04:04;;;;;;;1.70;0.55;;;;;;;;;;4985394;28;20138;-57
2022/03/16 00:06:30;;;;;;;2.20;0.40;;;;;;;;;;4983304;27;20034;-57
2022/03/16 00:08:56;;;;;;;1.75;0.40;;;;;;;;;;4985406;27;20080;-57
2022/03/16 00:11:22;;;;;;;0.70;0.32;;;;;;;;;;4982854;27;20054;-54
2022/03/16 00:13:47;;;;;;;2.08;0.52;;;;;;;;;;4985943;27;20068;-56
2022/03/16 00:16:13;;;;;;;0.98;0.40;;;;;;;;;;4984936;27;20045;-57
2022/03/16 00:18:39;;;;;;;0.82;0.40;;;;;;;;;;4983010;27;20045;-55
2022/03/16 00:21:05;;;;;;;2.33;0.40;;;;;;;;;;4983778;28;20050;-56
2022/03/16 00:23:32;;;;;;;3.17;0.60;;;;;;;;;;4983860;27;20123;-58
2022/03/16 00:25:58;;;;;;;2.03;0.60;;;;;;;;;;5067641;28;20414;-57
2022/03/16 00:28:24;;;;;;;2.88;0.60;;;;;;;;;;4984258;28;20071;-59
2022/03/16 00:30:50;;;;;;;1.92;0.50;;;;;;;;;;4984897;27;20086;-56
2022/03/16 00:33:16;;;;;;;0.95;0.50;;;;;;;;;;4983841;27;20034;-57
2022/03/16 00:35:42;;;;;;;3.78;0.57;;;;;;;;;;5067943;27;20156;-57
2022/03/16 00:38:09;;;;;;;2.40;0.60;;;;;;;;;;4984901;27;20073;-57
2022/03/16 00:40:36;;;;;;;3.10;0.40;;;;;;;;;;4983886;27;20049;-57
2022/03/16 00:43:02;;;;;;;0.30;0.30;;;;;;;;;;4985177;27;20090;-57
2022/03/16 00:45:28;;;;;;;12.10;0.52;;;;;;;;;;4982883;27;20142;-58
2022/03/16 00:47:53;;;;;;;0.80;0.32;;;;;;;;;;4986433;27;20042;-57
2022/03/16 00:50:19;;;;;;;0.77;0.40;;;;;;;;;;4982506;28;20042;-58
2022/03/16 00:52:45;;;;;;;2.25;0.40;;;;;;;;;;4984007;28;20034;-57
2022/03/16 00:55:11;;;;;;;3.83;0.47;;;;;;;;;;4983616;27;20040;-57
2022/03/16 00:57:37;;;;;;;0.80;0.38;;;;;;;;;;4983549;27;20088;-57
2022/03/16 01:00:04;;;;;;;0.45;0.30;;;;;;;;;;4983203;27;20090;-57
2022/03/16 01:02:30;;;;;;;0.63;0.38;;;;;;;;;;4982743;27;20050;-57
2022/03/16 01:04:56;;;;;;;0.80;0.32;;;;;;;;;;4984268;28;20049;-58
2022/03/16 01:07:22;;;;;;;0.82;0.40;;;;;;;;;;4983095;27;20479;-57
2022/03/16 01:09:48;;;;;;;0.90;0.40;;;;;;;;;;4985881;28;20069;-58
2022/03/16 01:12:14;;;;;;;1.75;0.40;;;;;;;;;;4984837;28;20042;-57
2022/03/16 01:14:40;;;;;;;0.82;0.43;;;;;;;;;;5066939;27;20042;-58
2022/03/16 01:17:06;;;;;;;4.70;0.50;;;;;;;;;;4985366;27;20703;-56
2022/03/16 01:19:34;;;;;;;1.45;0.50;;;;;;;;;;4984373;27;20038;-57
2022/03/16 01:22:01;;;;;;;0.57;0.30;;;;;;;;;;4985793;27;20050;-55
2022/03/16 01:24:27;;;;;;;0.85;0.40;;;;;;;;;;4984976;27;20197;-54
2022/03/16 01:26:54;;;;;;;1.88;0.40;;;;;;;;;;4989348;27;20128;-57
2022/03/16 01:29:20;;;;;;;0.65;0.40;;;;;;;;;;4966451;28;20062;-56
2022/03/16 01:31:46;;;;;;;0.82;0.40;;;;;;;;;;4985067;27;20464;-57
2022/03/16 01:34:11;;;;;;;1.65;0.60;;;;;;;;;;4984459;28;20038;-55
2022/03/16 01:36:57;;;;;;;0.73;0.30;;;;;;;;;;4964499;28;20434;-57
2022/03/16 01:39:23;;;;;;;3.72;0.57;;;;;;;;;;4960714;28;20756;-57
2022/03/16 01:41:50;;;;;;;1.25;0.43;;;;;;;;;;4962874;28;20062;-56
2022/03/16 01:44:16;;;;;;;3.40;0.52;;;;;;;;;;4963561;28;20050;-57
2022/03/16 01:46:42;;;;;;;2.67;0.40;;;;;;;;;;4961943;28;20041;-56
2022/03/16 01:49:08;;;;;;;1.20;0.40;;;;;;;;;;5009149;28;20047;-56
2022/03/16 01:51:34;;;;;;;1.98;0.50;;;;;;;;;;4957430;28;20532;-56
2022/03/16 01:54:00;;;;;;;0.88;0.40;;;;;;;;;;4960435;28;20036;-53
2022/03/16 01:56:26;;;;;;;2.38;0.50;;;;;;;;;;4961672;28;20043;-57
2022/03/16 01:58:52;;;;;;;1.27;0.50;;;;;;;;;;4958304;28;20039;-57
2022/03/16 02:01:18;;;;;;;3.53;0.63;;;;;;;;;;4941786;28;20090;-57
2022/03/16 02:03:44;;;;;;;3.45;0.45;;;;;;;;;;4960400;28;20043;-57
2022/03/16 02:06:10;;;;;;;0.30;0.30;;;;;;;;;;4944115;28;20439;-58
2022/03/16 02:08:36;;;;;;;0.80;0.40;;;;;;;;;;4965166;28;20405;-56
2022/03/16 02:11:02;;;;;;;0.85;0.40;;;;;;;;;;4969595;28;20157;-57
2022/03/16 02:13:28;;;;;;;0.30;0.30;;;;;;;;;;4972986;27;20483;-56
2022/03/16 02:15:54;;;;;;;1.38;0.50;;;;;;;;;;4988894;28;20063;-55
2022/03/16 02:18:20;;;;;;;1.13;0.45;;;;;;;;;;4986719;28;20040;-53
2022/03/16 02:20:49;;;;;;;2.08;0.50;;;;;;;;;;4987276;28;20046;-55
2022/03/16 02:23:15;;;;;;;0.30;0.30;;;;;;;;;;4985843;27;20184;-56
2022/03/16 02:25:51;;;;;;;1.10;0.43;;;;;;;;;;4985795;28;20035;-57
2022/03/16 02:28:17;;;;;;;1.63;0.60;;;;;;;;;;4984175;28;20042;-57
2022/03/16 02:30:43;;;;;;;3.70;0.60;;;;;;;;;;4984786;28;20042;-56
2022/03/16 02:33:09;;;;;;;1.58;0.52;;;;;;;;;;4986583;28;20938;-55
2022/03/16 02:35:35;;;;;;;2.70;0.60;;;;;;;;;;4985236;28;20072;-57
2022/03/16 02:38:01;;;;;;;1.90;0.60;;;;;;;;;;4968218;28;20061;-56
2022/03/16 02:40:27;;;;;;;1.83;0.50;;;;;;;;;;4984448;27;20324;-56
2022/03/16 02:42:53;;;;;;;1.25;0.50;;;;;;;;;;4986210;28;20045;-56
2022/03/16 02:45:19;;;;;;;1.42;0.50;;;;;;;;;;4983955;27;21576;-56
2022/03/16 02:47:45;;;;;;;1.90;0.50;;;;;;;;;;4987190;27;20595;-56
2022/03/16 02:50:12;;;;;;;1.33;0.50;;;;;;;;;;4985415;27;20053;-56
2022/03/16 02:52:38;;;;;;;1.20;0.52;;;;;;;;;;4986056;27;21173;-56
2022/03/16 02:55:05;;;;;;;4.70;0.70;;;;;;;;;;4985529;27;20728;-56
2022/03/16 02:57:31;;;;;;;1.45;0.50;;;;;;;;;;4985841;27;20390;-58
2022/03/16 02:59:57;;;;;;;3.50;0.50;;;;;;;;;;4985889;28;20053;-56
2022/03/16 03:02:23;;;;;;;1.85;0.55;;;;;;;;;;4977384;28;20078;-56
2022/03/16 03:04:49;;;;;;;2.47;0.70;;;;;;;;;;4986925;27;20037;-56
2022/03/16 03:07:14;;;;;;;4.72;0.73;;;;;;;;;;4985991;27;20045;-55
2022/03/16 03:09:40;;;;;;;2.40;0.52;;;;;;;;;;4985889;27;20034;-53
2022/03/16 03:12:06;;;;;;;2.53;0.60;;;;;;;;;;4986345;27;20110;-55
2022/03/16 03:14:33;;;;;;;1.35;0.50;;;;;;;;;;4968617;28;20046;-56
2022/03/16 03:16:59;;;;;;;4.00;0.70;;;;;;;;;;4987213;27;20597;-53
2022/03/16 03:19:25;;;;;;;2.42;0.70;;;;;;;;;;4988767;28;20052;-56
2022/03/16 03:21:51;;;;;;;3.00;0.80;;;;;;;;;;4988863;27;20129;-55
2022/03/16 03:24:17;;;;;;;4.40;0.70;;;;;;;;;;4987054;27;20073;-54
2022/03/16 03:26:43;;;;;;;2.63;0.60;;;;;;;;;;4986516;28;20050;-56
2022/03/16 03:29:09;;;;;;;2.67;0.77;;;;;;;;;;4987260;27;20329;-55
2022/03/16 03:31:35;;;;;;;3.25;0.60;;;;;;;;;;4988020;28;20087;-56
2022/03/16 03:34:01;;;;;;;4.10;0.77;;;;;;;;;;4993237;28;20038;-56
2022/03/16 03:36:27;;;;;;;3.25;1.25;;;;;;;;;;4991467;28;20095;-57
2022/03/16 03:38:53;;;;;;;5.60;0.88;;;;;;;;;;4993614;27;20057;-56
2022/03/16 03:41:19;;;;;;;5.50;0.93;;;;;;;;;;4984942;27;20050;-55
2022/03/16 03:43:45;;;;;;;2.58;0.73;;;;;;;;;;4986691;27;20150;-57
2022/03/16 03:46:11;;;;;;;2.03;0.70;;;;;;;;;;4986436;27;20092;-56
2022/03/16 03:48:37;;;;;;;3.65;1.00;;;;;;;;;;4984437;27;20042;-56
2022/03/16 03:51:03;;;;;;;5.57;0.90;;;;;;;;;;4983828;27;20601;-57
2022/03/16 03:53:29;;;;;;;3.20;0.90;;;;;;;;;;4983343;27;20042;-58
2022/03/16 03:55:55;;;;;;;2.47;0.90;;;;;;;;;;4979316;28;20065;-57
2022/03/16 03:58:21;;;;;;;5.00;1.02;;;;;;;;;;4984808;27;20164;-56
2022/03/16 04:00:49;;;;;;;3.08;0.90;;;;;;;;;;4983129;28;20042;-57
2022/03/16 04:03:15;;;;;;;3.22;1.02;;;;;;;;;;4984405;27;20061;-57
2022/03/16 04:05:41;;;;;;;4.75;0.98;;;;;;;;;;4983846;28;20381;-56
2022/03/16 04:08:07;;;;;;;3.55;0.90;;;;;;;;;;4986326;27;20064;-57
2022/03/16 04:10:36;;;;;;;7.75;1.00;;;;;;;;;;4983583;27;20034;-54
2022/03/16 04:13:03;;;;;;;2.22;0.73;;;;;;;;;;4984831;28;20044;-57
2022/03/16 04:15:29;;;;;;;7.07;1.00;;;;;;;;;;4984170;27;20420;-57
2022/03/16 04:17:55;;;;;;;6.57;0.80;;;;;;;;;;4985965;28;20042;-58
2022/03/16 04:20:21;;;;;;;6.80;1.00;;;;;;;;;;4971228;28;20127;-57
2022/03/16 04:22:46;;;;;;;3.92;0.88;;;;;;;;;;4982709;28;20058;-55
2022/03/16 04:25:12;;;;;;;3.28;0.80;;;;;;;;;;4985092;28;20739;-56
2022/03/16 04:27:38;;;;;;;5.75;1.00;;;;;;;;;;4982509;27;20050;-54
2022/03/16 04:30:05;;;;;;;2.67;0.80;;;;;;;;;;4982674;28;20259;-55
2022/03/16 04:32:31;;;;;;;3.67;1.08;;;;;;;;;;4983499;27;20065;-56
2022/03/16 04:34:57;;;;;;;3.53;0.90;;;;;;;;;;4985134;28;20034;-54
2022/03/16 04:37:22;;;;;;;2.47;0.88;;;;;;;;;;4985041;27;20150;-52
2022/03/16 04:39:48;;;;;;;3.35;0.90;;;;;;;;;;4984263;28;21418;-56
2022/03/16 04:42:14;;;;;;;4.28;0.80;;;;;;;;;;4984711;27;20061;-56
2022/03/16 04:44:40;;;;;;;2.88;0.80;;;;;;;;;;4985239;27;20062;-53
2022/03/16 04:47:06;;;;;;;3.75;0.82;;;;;;;;;;4986277;27;20072;-53
2022/03/16 04:49:32;;;;;;;4.97;0.90;;;;;;;;;;4985896;27;20042;-57
2022/03/16 04:51:58;;;;;;;3.05;0.90;;;;;;;;;;4986719;28;20056;-56
2022/03/16 04:54:24;;;;;;;3.40;0.90;;;;;;;;;;4983516;27;20038;-58
2022/03/16 04:56:50;;;;;;;1.75;0.65;;;;;;;;;;4982555;28;20050;-55
2022/03/16 04:59:17;;;;;;;3.08;1.10;;;;;;;;;;4984975;27;20038;-56
2022/03/16 05:01:43;;;;;;;3.20;0.90;;;;;;;;;;4983154;27;20552;-58
2022/03/16 05:04:09;;;;;;;7.47;1.30;;;;;;;;;;4985138;27;20042;-55
2022/03/16 05:06:35;;;;;;;4.03;1.23;;;;;;;;;;4984334;27;20046;-57
2022/03/16 05:09:00;;;;;;;4.75;1.33;;;;;;;;;;4988129;27;20042;-56
2022/03/16 05:11:26;;;;;;;3.83;1.30;;;;;;;;;;4981691;27;20042;-58
2022/03/16 05:13:52;;;;;;;3.47;1.05;;;;;;;;;;4983376;28;20405;-55
2022/03/16 05:16:18;;;;;;;2.85;0.85;;;;;;;;;;4983338;28;20030;-55
2022/03/16 05:18:45;;;;;;;6.30;1.10;;;;;;;;;;4985024;27;20038;-54
2022/03/16 05:21:12;;;;;;;5.20;1.20;;;;;;;;;;4982867;27;20517;-54
2022/03/16 05:23:38;;;;;;;5.22;1.15;;;;;;;;;;4982678;28;20046;-53
2022/03/16 05:26:04;;;;;;;2.78;0.80;;;;;;;;;;4983564;27;20038;-52
2022/03/16 05:28:31;;;;;;;2.60;0.90;;;;;;;;;;5067987;27;20127;-55
2022/03/16 05:30:57;;;;;;;4.07;1.15;;;;;;;;;;4981657;28;20577;-56
2022/03/16 05:33:24;;;;;;;3.00;0.90;;;;;;;;;;4983885;27;20056;-56
2022/03/16 05:35:50;;;;;;;3.08;0.93;;;;;;;;;;4983186;28;20046;-56
2022/03/16 05:38:16;;;;;;;3.05;0.90;;;;;;;;;;4983848;28;20042;-56
2022/03/16 05:40:43;;;;;;;2.17;0.68;;;;;;;;;;4983115;28;20127;-55
2022/03/16 05:43:10;;;;;;;5.32;1.35;;;;;;;;;;4985183;28;20139;-56
2022/03/16 05:45:36;;;;;;;4.57;1.58;;;;;;;;;;4986801;27;20034;-58
2022/03/16 05:48:03;;;;;;;12.73;6.22;;;;;;;;;;4987014;27;20458;-57
2022/03/16 05:50:29;;;;;;;11.93;4.68;;;;;;;;;;4998958;27;20046;-54
2022/03/16 05:52:56;;;;;;;7.85;2.60;;;;;;;;;;4984579;27;20407;-56
2022/03/16 05:55:21;;;;;;;7.00;1.30;;;;;;;;;;4985483;27;20131;-55
2022/03/16 05:57:49;;;;;;;2.40;0.70;;;;;;;;;;4988317;27;20130;-55
2022/03/16 06:00:16;;;;;;;4.38;1.27;;;;;;;;;;4985818;27;20107;-56
2022/03/16 06:02:46;;;;;;;5.43;1.08;;;;;;;;;;4986426;28;20126;-56
2022/03/16 06:05:12;;;;;;;3.25;1.33;;;;;;;;;;5054384;28;20084;-57
2022/03/16 06:07:38;;;;;;;6.88;1.30;;;;;;;;;;4986442;28;20056;-56
2022/03/16 06:10:05;;;;;;;4.43;1.50;;;;;;;;;;4987068;28;20039;-56
2022/03/16 06:12:31;;;;;;;6.10;1.02;;;;;;;;;;4986814;28;20117;-55
2022/03/16 06:14:57;;;;;;;2.17;0.80;;;;;;;;;;4987228;28;20046;-57
2022/03/16 06:17:23;;;;;;;2.80;0.60;;;;;;;;;;4987114;28;20038;-56
2022/03/16 06:19:49;;;;;;;2.08;0.57;;;;;;;;;;4988057;28;20431;-57
2022/03/16 06:22:15;;;;;;;2.55;0.63;;;;;;;;;;4986390;28;20578;-57
2022/03/16 06:24:41;;;;;;;2.20;0.60;;;;;;;;;;4984945;28;20567;-57
2022/03/16 06:27:06;;;;;;;4.13;0.70;;;;;;;;;;4987135;28;20133;-56
2022/03/16 06:29:32;;;;;;;3.83;0.50;;;;;;;;;;4986520;28;20050;-56
2022/03/16 06:31:58;;;;;;;1.27;0.50;;;;;;;;;;4987772;28;20049;-57
2022/03/16 06:34:25;;;;;;;1.63;0.45;;;;;;;;;;5069621;28;20487;-56
2022/03/16 06:36:51;;;;;;;1.45;0.57;;;;;;;;;;4985154;28;20038;-57
2022/03/16 06:39:17;;;;;;;1.23;0.45;;;;;;;;;;4984865;28;20502;-57
2022/03/16 06:41:43;;;;;;;3.00;0.60;;;;;;;;;;5037005;27;20161;-57
2022/03/16 06:44:10;;;;;;;2.50;0.68;;;;;;;;;;5015287;27;20113;-56
2022/03/16 06:46:37;;;;;;;1.48;0.50;;;;;;;;;;4984966;28;20042;-55
2022/03/16 06:49:03;;;;;;;1.58;0.60;;;;;;;;;;4985796;28;20121;-56
2022/03/16 06:51:29;;;;;;;1.25;0.40;;;;;;;;;;4984700;28;20066;-56
2022/03/16 06:53:55;;;;;;;1.88;0.75;;;;;;;;;;4985698;28;20172;-56
2022/03/16 06:56:20;;;;;;;1.55;0.50;;;;;;;;;;4985029;28;20050;-55
2022/03/16 06:58:46;;;;;;;1.58;0.40;;;;;;;;;;4986532;28;20045;-57
2022/03/16 07:01:13;;;;;;;2.97;0.60;;;;;;;;;;4984798;28;20164;-57
2022/03/16 07:03:38;;;;;;;2.28;0.60;;;;;;;;;;4985904;28;20037;-57
2022/03/16 07:06:04;;;;;;;2.17;0.50;;;;;;;;;;4985320;28;20122;-57
2022/03/16 07:08:30;;;;;;;2.70;0.88;;;;;;;;;;4984956;28;20554;-55
2022/03/16 07:16:25;;;;;;;3.05;0.80;;;;;;;;;;4986503;28;20134;-56
2022/03/16 07:18:51;;;;;;;2.22;0.68;;;;;;;;;;4985790;27;20030;-55
2022/03/16 07:24:00;;;;;;;;;;;;;;;;;;4985824;27;21812;-56
2022/03/16 07:29:09;;;;;;;;;;;;;;;;;;4989006;27;20060;-53
2022/03/16 07:31:53;;;;;;;2.13;0.70;;;;;;;;;;4987232;27;19918;-55
2022/03/16 07:34:38;;;;;;;1.88;0.50;;;;;;;;;;4987083;27;20196;-56
2022/03/16 07:37:23;;;;;;;1.88;0.60;;;;;;;;;;4984265;27;20121;-56
2022/03/16 07:39:49;;;;;;;1.77;0.60;;;;;;;;;;4983940;28;20049;-55
2022/03/16 07:42:33;;;;;;;1.65;0.47;;;;;;;;;;4985629;27;20078;-56
2022/03/16 07:44:59;;;;;;;1.65;0.60;;;;;;;;;;4983304;27;20046;-53
2022/03/16 07:47:26;;;;;;;1.15;0.50;;;;;;;;;;4983135;27;20095;-56
2022/03/16 07:49:56;;;;;;;2.15;0.60;;;;;;;;;;4983989;27;20030;-56
2022/03/16 07:52:25;;;;;;;5.18;0.70;;;;;;;;;;4983902;27;20495;-56
2022/03/16 07:57:36;;;;;;;3.10;0.70;;;;;;;;;;4984189;27;20102;-56
2022/03/16 08:00:06;;;;;;;1.83;0.60;;;;;;;;;;4983967;27;20125;-55
2022/03/16 08:02:32;;;;;;;1.20;0.50;;;;;;;;;;4984022;27;20648;-56
2022/03/16 08:05:00;;;;;;;0.98;0.40;;;;;;;;;;4967197;28;20034;-56
2022/03/16 08:07:26;;;;;;;4.05;0.60;;;;;;;;;;4984227;27;20449;-56
2022/03/16 08:09:52;;;;;;;1.92;0.65;;;;;;;;;;4987296;28;20038;-55
2022/03/16 08:12:18;;;;;;;4.70;0.57;;;;;;;;;;4984423;28;20046;-55
2022/03/16 08:14:44;;;;;;;1.92;0.50;;;;;;;;;;4986685;28;20346;-56
2022/03/16 08:20:12;;;;;;;3.50;0.50;;;;;;;;;;4987692;27;20069;-57
2022/03/16 08:22:38;;;;;;;1.58;0.47;;;;;;;;;;4986414;27;20054;-56
2022/03/16 08:25:07;;;;;;;1.45;0.60;;;;;;;;;;4985772;27;20041;-56
2022/03/16 08:27:34;;;;;;;1.67;0.50;;;;;;;;;;4984849;27;20081;-57
2022/03/16 08:30:18;;;;;;;3.20;0.57;;;;;;;;;;4983944;27;20034;-53
2022/03/16 08:33:02;;;;;;;1.45;0.50;;;;;;;;;;4982960;28;20495;-55
2022/03/16 08:38:32;;;;;;;2.38;0.50;;;;;;;;;;4986892;27;20091;-55
2022/03/16 08:40:58;;;;;;;1.25;0.45;;;;;;;;;;4983975;27;20266;-55
2022/03/16 08:46:26;;;;;;;0.65;0.35;;;;;;;;;;4983458;27;20053;-55
2022/03/16 08:48:52;;;;;;;1.80;0.50;;;;;;;;;;4984876;27;20450;-56
2022/03/16 08:51:18;;;;;;;1.00;0.40;;;;;;;;;;4984157;27;20101;-55
2022/03/16 08:53:45;;;;;;;0.95;0.30;;;;;;;;;;4983696;28;20057;-55
2022/03/16 08:56:12;;;;;;;1.13;0.40;;;;;;;;;;4984227;28;20049;-55
2022/03/16 09:01:22;;;;;;;1.75;0.40;;;;;;;;;;4983340;28;20089;-56
2022/03/16 09:06:50;;;;;;;0.98;0.40;;;;;;;;;;4983127;28;20056;-55
2022/03/16 09:09:16;;;;;;;1.30;0.55;;;;;;;;;;4974486;28;20049;-54
2022/03/16 09:12:04;;;;;;;2.75;0.50;;;;;;;;;;4986398;27;20049;-54
2022/03/16 09:14:29;;;;;;;0.60;0.30;;;;;;;;;;4984533;27;20530;-56
2022/03/16 09:16:55;;;;;;;0.98;0.40;;;;;;;;;;4984981;28;20045;-55
2022/03/16 09:19:21;;;;;;;1.45;0.50;;;;;;;;;;4984686;27;20050;-56
2022/03/16 09:21:47;;;;;;;0.38;0.30;;;;;;;;;;4985175;28;20080;-56
2022/03/16 09:24:14;;;;;;;2.45;0.50;;;;;;;;;;4987108;27;20035;-56
2022/03/16 09:30:01;;;;;;;1.10;0.40;;;;;;;;;;4982574;27;20514;-55
2022/03/16 09:32:27;;;;;;;2.35;0.45;;;;;;;;;;4983189;27;20695;-56
2022/03/16 09:35:12;;;;;;;1.58;0.50;;;;;;;;;;4984423;27;20056;-55
2022/03/16 09:37:38;;;;;;;2.20;0.50;;;;;;;;;;4982571;27;20050;-55
2022/03/16 09:40:04;;;;;;;1.17;0.40;;;;;;;;;;4981712;28;20046;-54
2022/03/16 09:42:31;;;;;;;0.85;0.40;;;;;;;;;;4983455;27;20054;-55
2022/03/16 09:45:00;;;;;;;1.08;0.40;;;;;;;;;;4982749;27;20425;-55
2022/03/16 09:47:26;;;;;;;0.88;0.38;;;;;;;;;;4982404;27;20047;-56
2022/03/16 09:49:53;;;;;;;6.82;0.52;;;;;;;;;;5066411;27;20104;-54
2022/03/16 09:52:19;;;;;;;0.98;0.40;;;;;;;;;;4983530;27;20073;-56
2022/03/16 09:54:46;;;;;;;0.77;0.30;;;;;;;;;;4983173;28;20133;-56
2022/03/16 09:57:12;;;;;;;0.60;0.38;;;;;;;;;;4983305;27;20149;-55
2022/03/16 09:59:38;;;;;;;1.55;0.40;;;;;;;;;;4954760;28;20042;-55
2022/03/16 10:02:22;;;;;;;1.15;0.50;;;;;;;;;;4983823;27;20047;-55
2022/03/16 10:05:07;;;;;;;0.60;0.30;;;;;;;;;;4983265;27;20074;-56
2022/03/16 10:07:51;;;;;;;0.32;0.30;;;;;;;;;;4985349;27;20062;-56
2022/03/16 10:13:21;;;;;;;1.05;0.40;;;;;;;;;;4983211;27;20068;-56
2022/03/16 10:15:47;;;;;;;0.77;0.40;;;;;;;;;;4984869;28;20057;-57
2022/03/16 10:18:19;;;;;;;1.38;0.40;;;;;;;;;;4966641;28;20039;-56
2022/03/16 10:21:04;;;;;;;0.88;0.40;;;;;;;;;;4981131;27;20071;-56
2022/03/16 10:26:19;;;;;;;1.15;0.40;;;;;;;;;;4982023;27;20084;-55
2022/03/16 10:28:48;;;;;;;2.38;0.40;;;;;;;;;;4983166;27;20072;-55
2022/03/16 10:31:16;;;;;;;2.30;0.50;;;;;;;;;;4985292;28;20388;-54
2022/03/16 10:39:31;;;;;;;1.55;0.50;;;;;;;;;;4985045;28;20597;-55
2022/03/16 10:48:14;;;;;;;0.70;0.40;;;;;;;;;;4987011;27;20068;-55
2022/03/16 10:50:43;;;;;;;1.13;0.40;;;;;;;;;;4987802;27;20038;-56
2022/03/16 10:53:30;;;;;;;2.08;0.47;;;;;;;;;;4986097;28;20558;-57
2022/03/16 10:55:59;;;;;;;2.15;0.63;;;;;;;;;;4986620;28;20045;-54
2022/03/16 10:58:25;;;;;;;0.95;0.40;;;;;;;;;;4989018;28;20178;-55
2022/03/16 11:06:39;;;;;;;2.78;0.43;;;;;;;;;;4984774;28;20103;-56
2022/03/16 11:09:23;;;;;;;1.75;0.50;;;;;;;;;;4987235;28;20107;-55
2022/03/16 11:14:34;;;;;;;1.65;0.52;;;;;;;;;;4984966;28;20092;-55
2022/03/16 11:17:01;;;;;;;0.85;0.40;;;;;;;;;;4985842;28;20034;-56
2022/03/16 11:19:27;;;;;;;2.10;0.50;;;;;;;;;;4986589;27;20045;-55
2022/03/16 11:22:02;;;;;;;1.67;0.60;;;;;;;;;;5068680;27;20119;-55
2022/03/16 11:24:32;;;;;;;0.85;0.30;;;;;;;;;;5068107;27;20092;-55
2022/03/16 11:27:16;;;;;;;1.35;0.50;;;;;;;;;;4984670;28;20073;-56
2022/03/16 11:29:46;;;;;;;1.70;0.50;;;;;;;;;;4984583;28;20069;-55
2022/03/16 11:32:13;;;;;;;1.30;0.43;;;;;;;;;;4984685;27;20159;-56
2022/03/16 11:34:45;;;;;;;2.83;0.50;;;;;;;;;;4985539;27;20046;-57
2022/03/16 11:37:12;;;;;;;6.85;0.60;;;;;;;;;;4973417;28;20038;-56
2022/03/16 11:39:41;;;;;;;1.83;0.50;;;;;;;;;;4985325;27;20042;-57
2022/03/16 11:42:07;;;;;;;1.35;0.50;;;;;;;;;;4986578;27;20077;-56
2022/03/16 11:44:34;;;;;;;3.20;0.60;;;;;;;;;;4984677;27;20034;-56
2022/03/16 11:47:09;;;;;;;1.85;0.60;;;;;;;;;;4985795;27;20042;-56
2022/03/16 11:49:42;;;;;;;1.52;0.60;;;;;;;;;;4984941;27;20050;-56
2022/03/16 11:52:12;;;;;;;1.70;0.50;;;;;;;;;;4986480;28;20050;-55
2022/03/16 11:54:48;;;;;;;3.78;0.50;;;;;;;;;;4985999;27;20063;-56
2022/03/16 11:57:34;;;;;;;1.77;0.50;;;;;;;;;;4985013;28;20038;-57
2022/03/16 12:00:11;;;;;;;1.13;0.43;;;;;;;;;;4983791;27;20042;-56
2022/03/16 12:02:38;;;;;;;1.63;0.55;;;;;;;;;;5068335;27;20054;-57
2022/03/16 12:05:04;;;;;;;1.02;0.40;;;;;;;;;;4985527;28;20046;-56
2022/03/16 12:07:35;;;;;;;1.55;0.50;;;;;;;;;;4985049;28;20175;-56
2022/03/16 12:10:03;;;;;;;1.50;0.40;;;;;;;;;;4983295;28;20065;-57
2022/03/16 12:15:15;;;;;;;1.75;0.50;;;;;;;;;;4985552;27;20081;-56
2022/03/16 12:17:42;;;;;;;2.25;0.68;;;;;;;;;;4983308;27;20046;-55
2022/03/16 12:20:11;;;;;;;1.48;0.50;;;;;;;;;;4983668;28;20039;-56
2022/03/16 12:22:44;;;;;;;1.67;0.47;;;;;;;;;;4982849;27;20466;-55
2022/03/16 12:25:27;;;;;;;2.08;0.50;;;;;;;;;;4985628;28;20448;-56
2022/03/16 12:30:39;;;;;;;2.53;0.60;;;;;;;;;;4985246;27;19925;-57
2022/03/16 12:33:05;;;;;;;3.42;0.52;;;;;;;;;;4987742;27;20073;-55
2022/03/16 12:35:36;;;;;;;2.40;0.60;;;;;;;;;;4983958;27;20040;-56
2022/03/16 12:38:02;;;;;;;4.22;0.65;;;;;;;;;;4982971;27;20161;-56
2022/03/16 12:40:31;;;;;;;5.07;0.63;;;;;;;;;;4985596;27;20037;-56
2022/03/16 12:42:57;;;;;;;2.45;0.80;;;;;;;;;;4985880;28;20046;-57
2022/03/16 12:45:28;;;;;;;1.58;0.50;;;;;;;;;;4984248;27;20501;-56
2022/03/16 12:48:04;;;;;;;1.02;0.40;;;;;;;;;;4986113;28;20038;-55
2022/03/16 12:50:30;;;;;;;1.60;0.40;;;;;;;;;;4984431;27;20520;-56
2022/03/16 12:52:57;;;;;;;6.75;0.70;;;;;;;;;;4984094;28;20041;-57
2022/03/16 12:55:24;;;;;;;1.33;0.40;;;;;;;;;;4983015;27;20811;-57
2022/03/16 12:57:56;;;;;;;1.42;0.47;;;;;;;;;;4982941;27;20038;-57
2022/03/16 13:00:31;;;;;;;1.40;0.47;;;;;;;;;;4982265;27;20042;-57
2022/03/16 13:03:13;;;;;;;2.50;0.70;;;;;;;;;;4982748;27;20767;-57
2022/03/16 13:05:39;;;;;;;1.88;0.52;;;;;;;;;;4983278;27;20410;-54
2022/03/16 13:08:07;;;;;;;1.88;0.50;;;;;;;;;;4985269;28;20046;-55
2022/03/16 13:11:14;;;;;;;1.40;0.50;;;;;;;;;;4981771;28;20045;-53
2022/03/16 13:13:19;;;;;;;2.00;0.60;;;;;;;;;;4982628;27;20049;-55
2022/03/16 13:15:50;;;;;;;1.25;0.50;;;;;;;;;;4983506;28;20046;-56
2022/03/16 13:18:34;;;;;;;1.90;0.68;;;;;;;;;;4984034;27;20049;-55
2022/03/16 13:21:01;;;;;;;3.10;0.63;;;;;;;;;;4982067;27;20104;-55
2022/03/16 13:23:32;;;;;;;1.88;0.50;;;;;;;;;;4983711;27;20046;-55
2022/03/16 13:26:06;;;;;;;2.25;0.68;;;;;;;;;;4985747;27;21912;-55
2022/03/16 13:28:31;;;;;;;;;;;;;;;;;;4982882;27;20039;-55
2022/03/16 13:30:57;;;;;;;1.83;0.50;;;;;;;;;;4984731;27;19963;-56
2022/03/16 13:33:27;;;;;;;2.00;0.60;;;;;;;;;;4983470;27;20570;-54
2022/03/16 13:36:13;;;;;;;1.30;0.60;;;;;;;;;;4983485;27;20050;-56
2022/03/16 13:38:39;;;;;;;4.28;0.60;;;;;;;;;;4984522;28;20050;-55
2022/03/16 13:41:14;;;;;;;4.03;0.60;;;;;;;;;;4989890;27;20065;-55
2022/03/16 13:43:41;;;;;;;3.80;0.70;;;;;;;;;;4989827;28;20419;-55
2022/03/16 13:46:09;;;;;;;17.00;0.90;;;;;;;;;;4991880;27;20049;-56
2022/03/16 13:48:39;;;;;;;1.20;0.50;;;;;;;;;;4991196;27;20542;-56
2022/03/16 13:51:06;;;;;;;3.95;0.60;;;;;;;;;;4986549;27;20284;-56
2022/03/16 13:53:43;;;;;;;4.50;0.70;;;;;;;;;;4984115;27;20121;-56
2022/03/16 13:56:13;;;;;;;2.17;0.57;;;;;;;;;;4982303;28;20042;-55
2022/03/16 13:58:42;;;;;;;1.30;0.43;;;;;;;;;;4983814;27;20047;-54
2022/03/16 14:01:08;;;;;;;6.38;0.65;;;;;;;;;;4982758;28;20078;-55
2022/03/16 14:03:34;;;;;;;9.80;0.88;;;;;;;;;;4983871;27;20108;-54
2022/03/16 14:06:10;;;;;;;4.10;0.63;;;;;;;;;;4987900;28;20038;-55
2022/03/16 14:08:37;;;;;;;0.98;0.40;;;;;;;;;;4985807;27;20041;-55
2022/03/16 14:11:02;;;;;;;1.65;0.60;;;;;;;;;;4967231;28;20042;-56
2022/03/16 14:13:29;;;;;;;3.25;0.75;;;;;;;;;;4988500;27;20043;-55
2022/03/16 14:16:15;;;;;;;2.00;0.68;;;;;;;;;;4997663;27;20091;-55
2022/03/16 14:18:41;;;;;;;2.13;0.60;;;;;;;;;;4979726;28;20038;-55
2022/03/16 14:21:10;;;;;;;2.35;0.57;;;;;;;;;;4988420;27;20046;-56
2022/03/16 14:23:37;;;;;;;1.50;0.52;;;;;;;;;;5071003;27;20039;-55
2022/03/16 14:26:04;;;;;;;1.67;0.50;;;;;;;;;;4986526;27;20035;-55
2022/03/16 14:28:30;;;;;;;1.55;0.50;;;;;;;;;;4986853;27;20058;-56
2022/03/16 14:30:56;;;;;;;1.55;0.45;;;;;;;;;;4988043;27;20042;-56
2022/03/16 14:33:24;;;;;;;1.05;0.40;;;;;;;;;;5061011;27;20032;-55
2022/03/16 14:35:50;;;;;;;1.50;0.52;;;;;;;;;;4987331;28;20107;-56
2022/03/16 14:38:17;;;;;;;3.38;0.50;;;;;;;;;;4984781;27;20518;-56
2022/03/16 14:40:44;;;;;;;7.78;0.60;;;;;;;;;;4957468;28;20038;-55
2022/03/16 14:43:10;;;;;;;4.65;0.80;;;;;;;;;;4985510;27;20050;-55
2022/03/16 14:45:38;;;;;;;3.05;0.60;;;;;;;;;;4984625;27;20083;-55
2022/03/16 14:48:05;;;;;;;2.40;0.40;;;;;;;;;;4985816;28;20030;-54
2022/03/16 14:50:31;;;;;;;2.75;0.65;;;;;;;;;;4984755;27;20384;-56
2022/03/16 14:52:57;;;;;;;1.42;0.47;;;;;;;;;;4985025;27;20046;-55
2022/03/16 14:55:23;;;;;;;2.00;0.50;;;;;;;;;;4967464;28;20400;-55
2022/03/16 14:57:50;;;;;;;3.20;0.70;;;;;;;;;;4985794;27;20868;-56
2022/03/16 15:00:16;;;;;;;3.90;0.50;;;;;;;;;;4985900;27;20050;-55
2022/03/16 15:02:42;;;;;;;6.38;0.70;;;;;;;;;;5070934;27;20038;-54
2022/03/16 15:05:09;;;;;;;3.17;0.75;;;;;;;;;;4985392;27;20147;-55
2022/03/16 15:07:35;;;;;;;0.88;0.40;;;;;;;;;;4986657;27;20050;-53
2022/03/16 15:10:01;;;;;;;4.35;0.43;;;;;;;;;;4987850;28;20045;-54
2022/03/16 15:12:27;;;;;;;1.40;0.52;;;;;;;;;;4986526;27;20445;-54
2022/03/16 15:14:54;;;;;;;1.45;0.50;;;;;;;;;;4986090;27;20038;-56
2022/03/16 15:17:20;;;;;;;6.82;0.60;;;;;;;;;;4966503;27;20050;-55
2022/03/16 15:19:46;;;;;;;1.63;0.45;;;;;;;;;;4985899;27;20049;-54
2022/03/16 15:22:13;;;;;;;4.22;0.70;;;;;;;;;;4984437;27;20070;-56
2022/03/16 15:24:39;;;;;;;1.83;0.50;;;;;;;;;;5070136;27;20038;-56
2022/03/16 15:27:05;;;;;;;1.13;0.40;;;;;;;;;;4985480;27;20682;-56
2022/03/16 15:29:31;;;;;;;2.88;0.50;;;;;;;;;;4986568;28;20398;-56
2022/03/16 15:31:57;;;;;;;1.17;0.40;;;;;;;;;;4985707;27;20034;-56
2022/03/16 15:34:23;;;;;;;0.43;0.30;;;;;;;;;;4985418;27;20751;-54
2022/03/16 15:36:49;;;;;;;3.50;0.60;;;;;;;;;;4985059;27;20030;-56
2022/03/16 15:39:16;;;;;;;1.42;0.50;;;;;;;;;;4985561;27;20478;-53
2022/03/16 15:44:25;;;;;;;3.72;0.50;;;;;;;;;;4985220;27;20049;-55
2022/03/16 15:46:52;;;;;;;2.13;0.50;;;;;;;;;;4983281;27;20038;-52
2022/03/16 15:49:21;;;;;;;2.00;0.45;;;;;;;;;;4984576;27;20049;-55
2022/03/16 15:51:48;;;;;;;1.25;0.30;;;;;;;;;;4977753;28;20124;-57
2022/03/16 15:54:14;;;;;;;2.50;0.40;;;;;;;;;;4984916;27;20080;-57